createdAt,value
2019-03-16T00:00:15.876Z,0.50
2019-03-16T00:02:46.326Z,1.17
2019-03-16T00:05:15.421Z,0.65
2019-03-16T00:07:44.271Z,0.42
2019-03-16T00:10:13.139Z,1.27
2019-03-16T00:12:42.000Z,0.72
2019-03-16T00:15:11.072Z,0.85
2019-03-16T00:17:40.177Z,0.65
2019-03-16T00:20:10.664Z,1.12
2019-03-16T00:22:39.525Z,0.93
2019-03-16T00:25:09.247Z,1.57
2019-03-16T00:27:39.072Z,1.37
2019-03-16T00:30:09.471Z,1.37
2019-03-16T00:32:38.560Z,1.55
2019-03-16T00:35:07.525Z,1.95
2019-03-16T00:37:36.403Z,2.00
2019-03-16T00:40:06.792Z,3.37
2019-03-16T00:42:35.999Z,3.27
2019-03-16T00:45:08.696Z,4.75
2019-03-16T00:47:37.551Z,2.37
2019-03-16T00:50:07.995Z,1.62
2019-03-16T00:52:36.839Z,3.00
2019-03-16T00:55:06.363Z,3.52
2019-03-16T00:57:35.281Z,2.20
2019-03-16T01:00:08.952Z,1.77
2019-03-16T01:02:37.819Z,1.80
2019-03-16T01:05:06.748Z,2.30
2019-03-16T01:07:35.599Z,2.10
2019-03-16T01:10:05.532Z,3.42
2019-03-16T01:12:34.379Z,1.40
2019-03-16T01:15:03.303Z,1.72
2019-03-16T01:17:32.236Z,1.52
2019-03-16T01:20:01.328Z,2.37
2019-03-16T01:22:30.208Z,2.27
2019-03-16T01:24:59.103Z,1.07
2019-03-16T01:27:28.228Z,2.12
2019-03-16T01:29:57.083Z,2.95
2019-03-16T01:32:25.960Z,2.77
2019-03-16T01:34:54.809Z,4.12
2019-03-16T01:37:23.667Z,2.83
2019-03-16T01:39:52.517Z,2.72
2019-03-16T01:42:22.277Z,3.77
2019-03-16T01:44:51.357Z,4.42
2019-03-16T01:47:20.212Z,1.90
2019-03-16T01:49:49.067Z,2.95
2019-03-16T01:52:17.935Z,2.42
2019-03-16T01:54:47.036Z,3.65
2019-03-16T01:57:16.115Z,2.17
2019-03-16T01:59:45.204Z,3.12
2019-03-16T02:02:14.136Z,4.17
2019-03-16T02:04:42.992Z,1.82
2019-03-16T02:07:11.839Z,2.40
2019-03-16T02:09:40.702Z,2.10
2019-03-16T02:12:09.553Z,2.62
2019-03-16T02:14:38.481Z,1.95
2019-03-16T02:17:07.333Z,1.85
2019-03-16T02:19:36.235Z,1.60
2019-03-16T02:22:05.109Z,3.37
2019-03-16T02:24:33.967Z,2.35
2019-03-16T02:27:02.812Z,3.80
2019-03-16T02:29:31.667Z,3.00
2019-03-16T02:32:00.530Z,3.27
2019-03-16T02:34:29.392Z,2.98
2019-03-16T02:36:58.240Z,3.35
2019-03-16T02:39:27.115Z,5.58
2019-03-16T02:41:56.193Z,7.28
2019-03-16T02:44:25.049Z,6.35
2019-03-16T02:46:53.930Z,3.52
2019-03-16T02:49:22.817Z,4.10
2019-03-16T02:51:51.666Z,5.12
2019-03-16T02:54:20.521Z,7.33
2019-03-16T02:56:49.383Z,6.28
2019-03-16T02:59:18.232Z,5.87
2019-03-16T03:01:47.084Z,5.47
2019-03-16T03:04:16.176Z,5.00
2019-03-16T03:06:45.080Z,6.00
2019-03-16T03:09:13.925Z,4.85
2019-03-16T03:11:42.779Z,8.38
2019-03-16T03:14:11.641Z,5.28
2019-03-16T03:16:40.487Z,2.15
2019-03-16T03:19:09.344Z,5.10
2019-03-16T03:21:38.188Z,3.00
2019-03-16T03:24:07.045Z,3.02
2019-03-16T03:26:35.888Z,4.15
2019-03-16T03:29:04.748Z,3.20
2019-03-16T03:31:33.625Z,2.40
2019-03-16T03:34:03.082Z,2.45
2019-03-16T03:36:32.972Z,2.17
2019-03-16T03:39:01.846Z,5.78
2019-03-16T03:41:31.920Z,2.52
2019-03-16T03:44:00.772Z,4.42
2019-03-16T03:46:32.226Z,3.05
2019-03-16T03:49:00.603Z,1.87
2019-03-16T03:51:29.471Z,3.85
2019-03-16T03:53:58.392Z,2.65
2019-03-16T03:56:27.351Z,3.55
2019-03-16T03:58:56.277Z,2.37
2019-03-16T04:01:25.124Z,5.05
2019-03-16T04:03:53.979Z,2.58
2019-03-16T04:06:22.836Z,3.25
2019-03-16T04:08:51.697Z,2.77
2019-03-16T04:11:20.551Z,1.50
2019-03-16T04:13:49.497Z,3.85
2019-03-16T04:16:18.578Z,2.75
2019-03-16T04:18:51.390Z,2.52
2019-03-16T04:21:17.992Z,4.22
2019-03-16T04:23:46.855Z,2.50
2019-03-16T04:26:15.723Z,3.17
2019-03-16T04:28:44.568Z,1.30
2019-03-16T04:31:13.420Z,2.12
2019-03-16T04:33:42.348Z,1.40
2019-03-16T04:36:11.196Z,2.35
2019-03-16T04:38:40.081Z,2.52
2019-03-16T04:41:08.916Z,4.12
2019-03-16T04:43:37.771Z,4.47
2019-03-16T04:46:06.866Z,2.30
2019-03-16T04:48:35.773Z,2.17
2019-03-16T04:51:05.332Z,3.45
2019-03-16T04:53:34.180Z,1.87
2019-03-16T04:56:03.031Z,3.65
2019-03-16T04:58:31.890Z,2.20
2019-03-16T05:01:00.768Z,4.20
2019-03-16T05:03:29.604Z,3.52
2019-03-16T05:05:58.459Z,1.72
2019-03-16T05:08:27.321Z,1.10
2019-03-16T05:10:56.421Z,1.05
2019-03-16T05:13:25.352Z,1.60
2019-03-16T05:15:54.217Z,2.35
2019-03-16T05:18:23.079Z,1.55
2019-03-16T05:20:52.179Z,2.05
2019-03-16T05:23:21.041Z,1.45
2019-03-16T05:25:50.132Z,1.55
2019-03-16T05:28:18.987Z,2.02
2019-03-16T05:30:47.835Z,1.55
2019-03-16T05:33:16.696Z,1.80
2019-03-16T05:35:45.568Z,2.92
2019-03-16T05:38:14.415Z,2.02
2019-03-16T05:40:43.270Z,2.20
2019-03-16T05:43:12.141Z,3.25
2019-03-16T05:45:41.007Z,3.30
2019-03-16T05:48:09.867Z,4.87
2019-03-16T05:50:38.724Z,3.85
2019-03-16T05:53:07.575Z,5.92
2019-03-16T05:55:36.487Z,6.37
2019-03-16T05:58:05.341Z,4.87
2019-03-16T06:00:34.235Z,3.30
2019-03-16T06:03:03.087Z,3.42
2019-03-16T06:05:31.959Z,4.50
2019-03-16T06:08:01.040Z,3.52
2019-03-16T06:10:29.899Z,5.22
2019-03-16T06:12:58.755Z,5.80
2019-03-16T06:15:27.615Z,4.60
2019-03-16T06:17:56.536Z,7.22
2019-03-16T06:20:25.393Z,4.85
2019-03-16T06:22:54.267Z,6.10
2019-03-16T06:25:23.103Z,5.97
2019-03-16T06:27:52.198Z,4.50
2019-03-16T06:30:21.285Z,4.12
2019-03-16T06:32:50.143Z,3.67
2019-03-16T06:35:25.034Z,3.52
2019-03-16T06:37:49.543Z,2.37
2019-03-16T06:40:18.395Z,2.40
2019-03-16T06:42:47.256Z,1.45
2019-03-16T06:45:16.105Z,1.70
2019-03-16T06:47:44.960Z,1.55
2019-03-16T06:50:14.386Z,0.75
2019-03-16T06:52:43.235Z,1.15
2019-03-16T06:55:12.167Z,0.70
2019-03-16T06:57:41.016Z,0.95
2019-03-16T07:00:11.244Z,1.42
2019-03-16T07:02:40.092Z,1.00
2019-03-16T07:05:10.180Z,0.60
2019-03-16T07:07:39.033Z,2.05
2019-03-16T07:10:08.856Z,1.42
2019-03-16T07:12:37.712Z,0.88
2019-03-16T07:15:07.753Z,1.70
2019-03-16T07:17:36.837Z,2.37
2019-03-16T07:20:06.780Z,1.40
2019-03-16T07:22:35.851Z,1.25
2019-03-16T07:25:06.260Z,1.27
2019-03-16T07:27:35.115Z,2.42
2019-03-16T07:30:06.800Z,1.10
2019-03-16T07:32:35.683Z,1.45
2019-03-16T07:35:06.024Z,1.55
2019-03-16T07:37:34.887Z,1.60
2019-03-16T07:40:10.132Z,2.25
2019-03-16T07:42:39.008Z,1.47
2019-03-16T07:45:09.400Z,3.87
2019-03-16T07:47:38.315Z,3.52
2019-03-16T07:50:08.136Z,2.30
2019-03-16T07:52:37.056Z,5.95
2019-03-16T07:55:06.383Z,2.47
2019-03-16T07:57:40.050Z,4.28
2019-03-16T08:00:07.533Z,1.82
2019-03-16T08:02:36.388Z,3.72
2019-03-16T08:05:17.409Z,2.33
2019-03-16T08:07:35.955Z,2.35
2019-03-16T08:10:05.984Z,2.40
2019-03-16T08:12:34.843Z,2.27
2019-03-16T08:15:04.471Z,3.20
2019-03-16T08:17:33.318Z,3.75
2019-03-16T08:20:02.184Z,4.62
2019-03-16T08:22:31.037Z,4.47
2019-03-16T08:25:00.126Z,4.12
2019-03-16T08:27:28.984Z,4.03
2019-03-16T08:29:57.823Z,2.87
2019-03-16T08:32:28.011Z,3.42
2019-03-16T08:35:00.425Z,3.42
2019-03-16T08:37:29.787Z,2.50
2019-03-16T08:39:59.004Z,2.30
2019-03-16T08:42:27.876Z,2.55
2019-03-16T08:44:57.940Z,2.40
2019-03-16T08:47:26.812Z,3.05
2019-03-16T08:49:55.664Z,4.03
2019-03-16T08:52:24.531Z,2.98
2019-03-16T08:54:53.413Z,4.30
2019-03-16T08:57:22.268Z,4.78
2019-03-16T08:59:51.407Z,4.25
2019-03-16T09:02:20.247Z,3.40
2019-03-16T09:04:49.155Z,6.15
2019-03-16T09:07:19.016Z,2.87
2019-03-16T09:12:38.965Z,3.70
2019-03-16T09:15:15.319Z,7.20
2019-03-16T09:17:48.119Z,4.60
2019-03-16T09:20:17.017Z,2.42
2019-03-16T09:22:46.159Z,4.53
2019-03-16T09:25:15.756Z,3.45
2019-03-16T09:27:44.842Z,2.65
2019-03-16T09:30:16.269Z,4.65
2019-03-16T09:32:48.095Z,4.35
2019-03-16T09:35:21.153Z,4.22
2019-03-16T09:37:54.637Z,3.70
2019-03-16T09:40:23.619Z,3.12
2019-03-16T09:42:52.534Z,3.20
2019-03-16T09:45:21.467Z,2.33
2019-03-16T09:47:52.518Z,4.83
2019-03-16T09:50:21.422Z,1.87
2019-03-16T09:52:51.860Z,4.10
2019-03-16T09:55:35.231Z,3.50
2019-03-16T09:58:04.208Z,3.37
2019-03-16T10:00:33.065Z,4.10
2019-03-16T10:03:01.959Z,2.35
2019-03-16T10:05:30.876Z,2.80
2019-03-16T10:07:59.844Z,2.67
2019-03-16T10:10:28.708Z,2.30
2019-03-16T10:12:57.563Z,2.00
2019-03-16T10:15:26.434Z,1.80
2019-03-16T10:17:57.219Z,6.45
2019-03-16T10:20:26.079Z,1.72
2019-03-16T10:22:54.931Z,1.90
2019-03-16T10:25:24.021Z,3.62
2019-03-16T10:27:53.168Z,7.35
2019-03-16T10:30:23.215Z,3.62
2019-03-16T10:32:53.016Z,2.15
2019-03-16T10:35:22.551Z,6.28
2019-03-16T10:37:51.728Z,4.90
2019-03-16T10:40:22.811Z,3.20
2019-03-16T10:42:52.559Z,2.87
2019-03-16T10:45:21.399Z,2.85
2019-03-16T10:47:50.332Z,2.33
2019-03-16T10:50:19.219Z,2.35
2019-03-16T10:52:48.320Z,2.27
2019-03-16T10:55:17.855Z,2.50
2019-03-16T10:57:46.727Z,3.77
2019-03-16T11:00:15.971Z,4.17
2019-03-16T11:02:45.923Z,2.02
2019-03-16T11:05:16.864Z,2.40
2019-03-16T11:07:50.350Z,4.25
2019-03-16T11:10:20.108Z,2.95
2019-03-16T11:12:48.963Z,2.37
2019-03-16T11:15:18.495Z,3.10
2019-03-16T11:17:47.360Z,1.77
2019-03-16T11:20:16.897Z,3.08
2019-03-16T11:22:45.754Z,2.15
2019-03-16T11:25:14.903Z,1.70
2019-03-16T11:27:51.381Z,2.80
2019-03-16T11:30:24.964Z,2.35
2019-03-16T11:35:45.006Z,3.02
2019-03-16T11:44:08.114Z,1.70
2019-03-16T11:46:48.916Z,2.30
2019-03-16T11:49:17.768Z,2.60
2019-03-16T11:51:54.477Z,0.95
2019-03-16T11:54:24.611Z,1.52
2019-03-16T11:57:00.615Z,0.90
2019-03-16T11:59:36.806Z,1.62
2019-03-16T12:02:07.695Z,2.05
2019-03-16T12:04:37.528Z,1.00
2019-03-16T12:07:06.509Z,2.12
2019-03-16T12:09:35.407Z,3.40
2019-03-16T12:12:04.396Z,0.70
2019-03-16T12:14:33.382Z,3.05
2019-03-16T12:17:02.475Z,2.90
2019-03-16T12:19:31.514Z,2.15
2019-03-16T12:22:00.380Z,0.70
2019-03-16T12:24:29.248Z,0.80
2019-03-16T12:26:58.118Z,0.75
2019-03-16T12:29:33.997Z,1.77
2019-03-16T12:31:57.798Z,0.72
2019-03-16T12:34:26.861Z,1.00
2019-03-16T12:36:55.731Z,0.70
2019-03-16T12:39:30.637Z,0.75
2019-03-16T12:41:59.496Z,1.40
2019-03-16T12:44:29.974Z,0.75
2019-03-16T12:46:58.833Z,0.72
2019-03-16T12:49:27.684Z,0.95
2019-03-16T12:51:56.789Z,1.20
2019-03-16T12:54:25.868Z,1.12
2019-03-16T12:56:54.739Z,0.80
2019-03-16T12:59:23.591Z,0.85
2019-03-16T13:01:52.493Z,0.70
2019-03-16T13:04:21.398Z,0.80
2019-03-16T13:06:50.258Z,0.90
2019-03-16T13:09:19.116Z,0.70
2019-03-16T13:11:48.208Z,0.60
2019-03-16T13:14:17.092Z,1.85
2019-03-16T13:16:45.937Z,0.60
2019-03-16T13:19:14.795Z,1.17
2019-03-16T13:21:44.058Z,0.80
2019-03-16T13:24:13.031Z,0.93
2019-03-16T13:26:41.978Z,1.25
2019-03-16T13:29:10.831Z,0.80
2019-03-16T13:31:39.922Z,0.82
2019-03-16T13:34:08.777Z,0.90
2019-03-16T13:36:37.644Z,2.65
2019-03-16T13:39:06.571Z,2.83
2019-03-16T13:41:37.100Z,1.77
2019-03-16T13:44:05.963Z,1.30
2019-03-16T13:46:35.086Z,2.40
2019-03-16T13:49:03.957Z,1.60
2019-03-16T13:51:33.044Z,3.47
2019-03-16T13:54:04.699Z,2.00
2019-03-16T13:56:33.560Z,1.70
2019-03-16T13:59:10.183Z,1.47
2019-03-16T14:01:42.441Z,4.42
2019-03-16T14:04:11.288Z,4.28
2019-03-16T14:06:40.148Z,1.62
2019-03-16T14:09:10.880Z,4.25
2019-03-16T14:11:41.366Z,3.45
2019-03-16T14:14:10.283Z,4.72
2019-03-16T14:16:39.140Z,4.55
2019-03-16T14:19:07.992Z,7.03
2019-03-16T14:21:36.923Z,3.52
2019-03-16T14:24:05.791Z,6.65
2019-03-16T14:26:34.887Z,7.90
2019-03-16T14:29:03.755Z,4.17
2019-03-16T14:31:33.584Z,4.65
2019-03-16T14:34:02.681Z,3.90
2019-03-16T14:36:31.531Z,5.75
2019-03-16T14:39:00.471Z,7.25
2019-03-16T14:41:29.322Z,7.10
2019-03-16T14:43:58.346Z,6.05
2019-03-16T14:46:27.203Z,5.90
2019-03-16T14:48:56.136Z,4.78
2019-03-16T14:51:25.134Z,3.60
2019-03-16T14:53:53.996Z,6.80
2019-03-16T14:56:22.860Z,4.17
2019-03-16T14:58:51.713Z,5.22
2019-03-16T15:01:20.574Z,4.75
2019-03-16T15:03:49.442Z,5.17
2019-03-16T15:06:18.575Z,4.65
2019-03-16T15:08:47.418Z,5.90
2019-03-16T15:11:16.287Z,4.85
2019-03-16T15:13:45.144Z,4.37
2019-03-16T15:16:14.003Z,4.17
2019-03-16T15:18:44.968Z,4.92
2019-03-16T15:21:13.420Z,2.90
2019-03-16T15:23:42.283Z,4.30
2019-03-16T15:26:11.174Z,4.67
2019-03-16T15:28:40.089Z,4.62
2019-03-16T15:31:08.935Z,6.12
2019-03-16T15:33:37.805Z,3.22
2019-03-16T15:36:06.662Z,3.33
2019-03-16T15:38:35.588Z,4.33
2019-03-16T15:41:04.691Z,3.37
2019-03-16T15:43:33.548Z,5.12
2019-03-16T15:46:02.419Z,3.92
2019-03-16T15:48:31.328Z,3.50
2019-03-16T15:51:00.233Z,3.50
2019-03-16T15:53:29.083Z,3.27
2019-03-16T15:55:59.879Z,5.33
2019-03-16T15:58:28.738Z,4.47
2019-03-16T16:01:03.544Z,5.10
2019-03-16T16:03:28.141Z,3.70
2019-03-16T16:05:57.120Z,3.37
2019-03-16T16:08:32.084Z,3.33
2019-03-16T16:11:01.577Z,5.47
2019-03-16T16:13:30.464Z,2.83
2019-03-16T16:15:59.412Z,4.15
2019-03-16T16:18:28.494Z,2.50
2019-03-16T16:20:57.587Z,5.33
2019-03-16T16:23:28.844Z,2.87
2019-03-16T16:25:57.679Z,3.65
2019-03-16T16:28:27.509Z,3.62
2019-03-16T16:30:56.359Z,4.53
2019-03-16T16:33:26.191Z,2.98
2019-03-16T16:35:55.742Z,3.52
2019-03-16T16:38:25.973Z,3.95
2019-03-16T16:40:54.815Z,5.25
2019-03-16T16:43:23.685Z,5.17
2019-03-16T16:45:52.772Z,3.40
2019-03-16T16:48:22.618Z,3.47
2019-03-16T16:50:51.473Z,5.90
2019-03-16T16:53:20.331Z,3.17
2019-03-16T16:55:49.197Z,6.00
2019-03-16T16:58:18.277Z,3.55
2019-03-16T17:00:48.136Z,7.10
2019-03-16T17:03:17.057Z,5.12
2019-03-16T17:05:45.916Z,5.15
2019-03-16T17:08:14.791Z,3.15
2019-03-16T17:10:43.639Z,2.80
2019-03-16T17:13:12.496Z,6.03
2019-03-16T17:15:41.613Z,2.65
2019-03-16T17:18:11.582Z,4.90
2019-03-16T17:20:40.516Z,4.62
2019-03-16T17:23:09.916Z,2.55
2019-03-16T17:25:38.790Z,4.67
2019-03-16T17:28:07.644Z,4.62
2019-03-16T17:30:36.497Z,4.08
2019-03-16T17:33:05.616Z,4.35
2019-03-16T17:35:34.439Z,4.47
2019-03-16T17:38:03.329Z,4.22
2019-03-16T17:40:32.331Z,5.05
2019-03-16T17:43:01.203Z,5.35
2019-03-16T17:45:30.639Z,3.47
2019-03-16T17:48:00.223Z,3.87
2019-03-16T17:50:29.071Z,4.17
2019-03-16T17:52:57.959Z,3.65
2019-03-16T17:55:26.807Z,7.08
2019-03-16T17:57:55.655Z,3.50
2019-03-16T18:00:24.506Z,3.60
2019-03-16T18:02:53.371Z,3.65
2019-03-16T18:05:22.219Z,5.47
2019-03-16T18:07:51.159Z,2.37
2019-03-16T18:10:20.030Z,3.47
2019-03-16T18:12:48.884Z,3.98
2019-03-16T18:15:18.309Z,2.83
2019-03-16T18:17:47.154Z,4.40
2019-03-16T18:20:19.023Z,5.80
2019-03-16T18:22:47.947Z,3.40
2019-03-16T18:25:16.978Z,3.62
2019-03-16T18:27:45.902Z,4.83
2019-03-16T18:30:19.247Z,2.90
2019-03-16T18:32:48.110Z,3.50
2019-03-16T18:35:16.960Z,3.98
2019-03-16T18:37:46.042Z,6.20
2019-03-16T18:40:15.183Z,5.83
2019-03-16T18:42:44.032Z,4.53
2019-03-16T18:45:20.114Z,4.97
2019-03-16T18:47:48.991Z,4.30
2019-03-16T18:50:17.842Z,5.58
2019-03-16T18:52:46.698Z,2.65
2019-03-16T18:55:15.561Z,6.00
2019-03-16T18:57:44.408Z,5.42
2019-03-16T19:00:16.587Z,5.28
2019-03-16T19:02:45.449Z,4.42
2019-03-16T19:05:14.365Z,4.47
2019-03-16T19:07:43.287Z,3.92
2019-03-16T19:10:12.904Z,3.35
2019-03-16T19:12:41.780Z,3.85
2019-03-16T19:15:14.227Z,4.78
2019-03-16T19:17:57.274Z,4.03
2019-03-16T19:20:16.202Z,5.25
2019-03-16T19:22:45.302Z,4.37
2019-03-16T19:25:17.379Z,4.17
2019-03-16T19:27:46.475Z,4.30
2019-03-16T19:30:16.564Z,4.78
2019-03-16T19:32:45.424Z,6.22
2019-03-16T19:35:14.275Z,3.52
2019-03-16T19:37:43.124Z,5.28
2019-03-16T19:40:12.859Z,3.30
2019-03-16T19:42:41.776Z,5.70
2019-03-16T19:45:11.499Z,4.87
2019-03-16T19:47:40.414Z,4.92
2019-03-16T19:50:11.618Z,6.67
2019-03-16T19:52:40.455Z,4.60
2019-03-16T19:55:10.151Z,5.55
2019-03-16T19:57:39.234Z,5.45
2019-03-16T20:00:09.863Z,4.62
2019-03-16T20:02:47.290Z,13.03
2019-03-16T20:05:09.842Z,7.80
2019-03-16T20:07:38.886Z,4.40
2019-03-16T20:10:09.711Z,5.30
2019-03-16T20:12:38.567Z,4.60
2019-03-16T20:15:09.369Z,4.20
2019-03-16T20:17:38.227Z,7.28
2019-03-16T20:20:11.363Z,4.87
2019-03-16T20:22:40.215Z,5.03
2019-03-16T20:25:09.548Z,7.10
2019-03-16T20:27:38.487Z,5.97
2019-03-16T20:30:09.586Z,5.67
2019-03-16T20:32:38.745Z,21.85
2019-03-16T20:35:08.085Z,13.65
2019-03-16T20:37:36.962Z,7.22
2019-03-16T20:40:07.613Z,9.75
2019-03-16T20:42:36.483Z,9.73
2019-03-16T20:45:06.031Z,6.10
2019-03-16T20:47:34.931Z,6.10
2019-03-16T20:50:05.370Z,6.78
2019-03-16T20:52:34.223Z,5.67
2019-03-16T20:55:03.885Z,6.40
2019-03-16T20:57:32.743Z,6.17
2019-03-16T21:00:01.591Z,6.50
2019-03-16T21:02:30.619Z,5.65
2019-03-16T21:04:59.482Z,5.22
2019-03-16T21:07:28.598Z,5.65
2019-03-16T21:09:57.455Z,5.15
2019-03-16T21:12:26.536Z,5.97
2019-03-16T21:14:55.408Z,3.35
2019-03-16T21:17:24.504Z,5.95
2019-03-16T21:19:53.367Z,3.70
2019-03-16T21:22:34.625Z,3.35
2019-03-16T21:24:53.004Z,3.45
2019-03-16T21:27:21.859Z,4.50
2019-03-16T21:29:50.712Z,4.35
2019-03-16T21:32:19.560Z,5.70
2019-03-16T21:34:48.638Z,3.30
2019-03-16T21:37:17.504Z,5.80
2019-03-16T21:39:46.347Z,4.92
2019-03-16T21:42:15.205Z,3.52
2019-03-16T21:44:49.661Z,3.85
2019-03-16T21:47:18.744Z,3.55
2019-03-16T21:49:47.632Z,5.55
2019-03-16T21:52:16.766Z,6.22
2019-03-16T21:54:47.613Z,7.75
2019-03-16T21:57:20.424Z,7.95
2019-03-16T21:59:49.936Z,7.80
2019-03-16T22:02:18.922Z,4.72
2019-03-16T22:04:49.896Z,6.70
2019-03-16T22:07:18.841Z,7.42
2019-03-16T22:09:47.824Z,4.25
2019-03-16T22:12:16.679Z,5.10
2019-03-16T22:14:46.504Z,5.42
2019-03-16T22:17:15.363Z,3.45
2019-03-16T22:19:44.754Z,5.60
2019-03-16T22:22:13.691Z,4.65
2019-03-16T22:24:42.547Z,8.28
2019-03-16T22:27:11.651Z,5.40
2019-03-16T22:29:40.941Z,3.45
2019-03-16T22:32:11.564Z,10.45
2019-03-16T22:34:42.350Z,4.28
2019-03-16T22:37:12.815Z,5.22
2019-03-16T22:39:42.481Z,5.50
2019-03-16T22:42:11.574Z,4.60
2019-03-16T22:44:40.453Z,5.55
2019-03-16T22:47:10.866Z,3.72
2019-03-16T22:49:40.105Z,2.95
2019-03-16T22:52:09.229Z,5.15
2019-03-16T22:54:38.097Z,6.30
2019-03-16T22:57:07.873Z,4.50
2019-03-16T22:59:36.721Z,6.83
2019-03-16T23:02:05.845Z,5.00
2019-03-16T23:04:34.931Z,4.10
2019-03-16T23:07:03.807Z,3.90
2019-03-16T23:09:32.668Z,4.87
2019-03-16T23:12:01.503Z,4.10
2019-03-16T23:14:30.588Z,6.37
2019-03-16T23:16:59.663Z,4.65
2019-03-16T23:19:28.521Z,6.22
2019-03-16T23:21:57.368Z,5.37
2019-03-16T23:24:26.452Z,4.45
2019-03-16T23:26:55.316Z,4.00
2019-03-16T23:29:24.241Z,4.45
2019-03-16T23:31:53.323Z,6.80
2019-03-16T23:34:22.251Z,6.22
2019-03-16T23:36:52.638Z,4.05
2019-03-16T23:39:21.500Z,5.58
2019-03-16T23:41:50.584Z,5.58
2019-03-16T23:44:19.439Z,7.00
2019-03-16T23:46:48.292Z,5.75
2019-03-16T23:49:17.135Z,6.40
2019-03-16T23:51:46.001Z,5.80
2019-03-16T23:54:15.089Z,5.50
2019-03-16T23:56:43.932Z,8.08
2019-03-16T23:59:12.783Z,5.92
